sensor_id;sensor_type;location;lat;lon;timestamp;P1;durP1;ratioP1;P2;durP2;ratioP2
19535;SDS011;9913;51.168;4.124;2024-01-15T00:00:30;8.87;;;5.80;;
19535;SDS011;9913;51.168;4.124;2024-01-15T00:02:59;10.03;;;6.43;;
19535;SDS011;9913;51.168;4.124;2024-01-15T00:05:28;10.67;;;6.63;;
19535;SDS011;9913;51.168;4.124;2024-01-15T00:07:57;9.87;;;6.13;;
19535;SDS011;9913;51.168;4.124;2024-01-15T00:10:26;10.10;;;4.97;;
19535;SDS011;9913;51.168;4.124;2024-01-15T00:12:56;6.87;;;4.50;;
19535;SDS011;9913;51.168;4.124;2024-01-15T00:15:25;8.93;;;4.87;;
19535;SDS011;9913;51.168;4.124;2024-01-15T00:17:55;11.57;;;4.70;;
19535;SDS011;9913;51.168;4.124;2024-01-15T00:20:26;8.43;;;4.07;;
19535;SDS011;9913;51.168;4.124;2024-01-15T00:22:57;6.40;;;3.77;;
19535;SDS011;9913;51.168;4.124;2024-01-15T00:25:26;8.90;;;3.77;;
19535;SDS011;9913;51.168;4.124;2024-01-15T00:27:57;7.80;;;3.77;;
19535;SDS011;9913;51.168;4.124;2024-01-15T00:30:26;6.93;;;2.43;;
19535;SDS011;9913;51.168;4.124;2024-01-15T00:32:55;4.30;;;1.90;;
19535;SDS011;9913;51.168;4.124;2024-01-15T00:35:24;7.97;;;2.20;;
19535;SDS011;9913;51.168;4.124;2024-01-15T00:37:53;5.83;;;2.03;;
19535;SDS011;9913;51.168;4.124;2024-01-15T00:40:22;5.27;;;2.37;;
19535;SDS011;9913;51.168;4.124;2024-01-15T00:42:53;5.20;;;2.13;;
19535;SDS011;9913;51.168;4.124;2024-01-15T00:45:23;5.67;;;2.23;;
19535;SDS011;9913;51.168;4.124;2024-01-15T00:47:52;5.20;;;2.27;;
19535;SDS011;9913;51.168;4.124;2024-01-15T00:50:26;4.17;;;2.00;;
19535;SDS011;9913;51.168;4.124;2024-01-15T00:52:55;5.20;;;2.00;;
19535;SDS011;9913;51.168;4.124;2024-01-15T00:55:24;6.33;;;2.33;;
19535;SDS011;9913;51.168;4.124;2024-01-15T00:57:52;6.47;;;2.00;;
19535;SDS011;9913;51.168;4.124;2024-01-15T01:00:21;5.40;;;2.30;;
19535;SDS011;9913;51.168;4.124;2024-01-15T01:02:52;7.07;;;2.17;;
19535;SDS011;9913;51.168;4.124;2024-01-15T01:05:21;4.97;;;2.20;;
19535;SDS011;9913;51.168;4.124;2024-01-15T01:07:50;4.93;;;2.10;;
19535;SDS011;9913;51.168;4.124;2024-01-15T01:10:19;5.23;;;2.23;;
19535;SDS011;9913;51.168;4.124;2024-01-15T01:12:48;6.77;;;2.03;;
19535;SDS011;9913;51.168;4.124;2024-01-15T01:15:17;5.43;;;1.73;;
19535;SDS011;9913;51.168;4.124;2024-01-15T01:17:47;4.30;;;1.67;;
19535;SDS011;9913;51.168;4.124;2024-01-15T01:20:16;9.97;;;1.90;;
19535;SDS011;9913;51.168;4.124;2024-01-15T01:22:45;4.40;;;1.53;;
19535;SDS011;9913;51.168;4.124;2024-01-15T01:25:14;6.37;;;1.40;;
19535;SDS011;9913;51.168;4.124;2024-01-15T01:27:43;6.10;;;1.77;;
19535;SDS011;9913;51.168;4.124;2024-01-15T01:30:13;7.17;;;1.33;;
19535;SDS011;9913;51.168;4.124;2024-01-15T01:32:42;5.73;;;1.53;;
19535;SDS011;9913;51.168;4.124;2024-01-15T01:35:13;5.23;;;1.23;;
19535;SDS011;9913;51.168;4.124;2024-01-15T01:37:42;4.13;;;1.10;;
19535;SDS011;9913;51.168;4.124;2024-01-15T01:40:11;4.07;;;1.23;;
19535;SDS011;9913;51.168;4.124;2024-01-15T01:42:40;6.63;;;1.20;;
19535;SDS011;9913;51.168;4.124;2024-01-15T01:45:09;4.13;;;1.27;;
19535;SDS011;9913;51.168;4.124;2024-01-15T01:47:39;3.37;;;0.70;;
19535;SDS011;9913;51.168;4.124;2024-01-15T01:50:08;5.70;;;1.10;;
19535;SDS011;9913;51.168;4.124;2024-01-15T01:52:39;5.57;;;1.00;;
19535;SDS011;9913;51.168;4.124;2024-01-15T01:55:10;5.70;;;1.63;;
19535;SDS011;9913;51.168;4.124;2024-01-15T01:57:40;4.80;;;1.10;;
19535;SDS011;9913;51.168;4.124;2024-01-15T02:00:11;4.43;;;1.47;;
19535;SDS011;9913;51.168;4.124;2024-01-15T02:02:41;1.97;;;0.80;;
19535;SDS011;9913;51.168;4.124;2024-01-15T02:05:12;3.50;;;1.10;;
19535;SDS011;9913;51.168;4.124;2024-01-15T02:07:44;3.93;;;2.07;;
19535;SDS011;9913;51.168;4.124;2024-01-15T02:10:13;3.80;;;1.67;;
19535;SDS011;9913;51.168;4.124;2024-01-15T02:12:42;3.40;;;1.30;;
19535;SDS011;9913;51.168;4.124;2024-01-15T02:15:12;5.67;;;1.50;;
19535;SDS011;9913;51.168;4.124;2024-01-15T02:17:56;5.07;;;1.60;;
19535;SDS011;9913;51.168;4.124;2024-01-15T02:20:26;6.53;;;1.60;;
19535;SDS011;9913;51.168;4.124;2024-01-15T02:23:03;2.63;;;1.10;;
19535;SDS011;9913;51.168;4.124;2024-01-15T02:25:37;5.27;;;1.13;;
19535;SDS011;9913;51.168;4.124;2024-01-15T02:28:08;3.87;;;1.03;;
19535;SDS011;9913;51.168;4.124;2024-01-15T02:30:39;3.90;;;1.37;;
19535;SDS011;9913;51.168;4.124;2024-01-15T02:33:09;4.37;;;1.37;;
19535;SDS011;9913;51.168;4.124;2024-01-15T02:35:40;2.73;;;0.90;;
19535;SDS011;9913;51.168;4.124;2024-01-15T02:38:10;3.83;;;1.30;;
19535;SDS011;9913;51.168;4.124;2024-01-15T02:40:40;5.60;;;1.27;;
19535;SDS011;9913;51.168;4.124;2024-01-15T02:43:09;5.10;;;1.30;;
19535;SDS011;9913;51.168;4.124;2024-01-15T02:45:39;2.97;;;1.27;;
19535;SDS011;9913;51.168;4.124;2024-01-15T02:48:08;4.77;;;1.00;;
19535;SDS011;9913;51.168;4.124;2024-01-15T02:50:37;4.93;;;1.43;;
19535;SDS011;9913;51.168;4.124;2024-01-15T02:53:06;6.27;;;1.40;;
19535;SDS011;9913;51.168;4.124;2024-01-15T02:55:36;3.67;;;1.30;;
19535;SDS011;9913;51.168;4.124;2024-01-15T02:58:05;6.77;;;1.53;;
19535;SDS011;9913;51.168;4.124;2024-01-15T03:00:34;4.53;;;1.57;;
19535;SDS011;9913;51.168;4.124;2024-01-15T03:03:03;8.03;;;1.40;;
19535;SDS011;9913;51.168;4.124;2024-01-15T03:05:32;3.57;;;1.30;;
19535;SDS011;9913;51.168;4.124;2024-01-15T03:08:01;6.13;;;1.73;;
19535;SDS011;9913;51.168;4.124;2024-01-15T03:10:30;4.03;;;1.30;;
19535;SDS011;9913;51.168;4.124;2024-01-15T03:13:00;6.73;;;1.67;;
19535;SDS011;9913;51.168;4.124;2024-01-15T03:15:29;7.03;;;2.10;;
19535;SDS011;9913;51.168;4.124;2024-01-15T03:17:58;6.67;;;2.40;;
19535;SDS011;9913;51.168;4.124;2024-01-15T03:20:27;8.57;;;2.20;;
19535;SDS011;9913;51.168;4.124;2024-01-15T03:22:56;4.50;;;1.90;;
19535;SDS011;9913;51.168;4.124;2024-01-15T03:25:24;7.20;;;3.10;;
19535;SDS011;9913;51.168;4.124;2024-01-15T03:27:53;5.13;;;2.27;;
19535;SDS011;9913;51.168;4.124;2024-01-15T03:30:24;6.40;;;2.43;;
19535;SDS011;9913;51.168;4.124;2024-01-15T03:32:53;5.27;;;2.70;;
19535;SDS011;9913;51.168;4.124;2024-01-15T03:35:22;5.63;;;3.40;;
19535;SDS011;9913;51.168;4.124;2024-01-15T03:37:56;8.00;;;3.30;;
19535;SDS011;9913;51.168;4.124;2024-01-15T03:40:24;8.13;;;3.90;;
19535;SDS011;9913;51.168;4.124;2024-01-15T03:42:53;7.80;;;3.90;;
19535;SDS011;9913;51.168;4.124;2024-01-15T03:45:23;10.73;;;4.63;;
19535;SDS011;9913;51.168;4.124;2024-01-15T03:47:52;6.57;;;4.30;;
19535;SDS011;9913;51.168;4.124;2024-01-15T03:50:21;7.70;;;3.90;;
19535;SDS011;9913;51.168;4.124;2024-01-15T03:52:51;6.47;;;4.40;;
19535;SDS011;9913;51.168;4.124;2024-01-15T03:55:20;12.27;;;5.30;;
19535;SDS011;9913;51.168;4.124;2024-01-15T03:57:49;9.30;;;4.80;;
19535;SDS011;9913;51.168;4.124;2024-01-15T04:00:18;9.73;;;4.33;;
19535;SDS011;9913;51.168;4.124;2024-01-15T04:02:49;9.27;;;4.97;;
19535;SDS011;9913;51.168;4.124;2024-01-15T04:05:17;8.87;;;5.13;;
19535;SDS011;9913;51.168;4.124;2024-01-15T04:07:46;6.13;;;4.17;;
19535;SDS011;9913;51.168;4.124;2024-01-15T04:10:15;7.13;;;5.20;;
19535;SDS011;9913;51.168;4.124;2024-01-15T04:12:44;8.07;;;4.67;;
19535;SDS011;9913;51.168;4.124;2024-01-15T04:15:13;6.73;;;4.80;;
19535;SDS011;9913;51.168;4.124;2024-01-15T04:17:43;10.77;;;5.57;;
19535;SDS011;9913;51.168;4.124;2024-01-15T04:20:13;13.37;;;4.77;;
19535;SDS011;9913;51.168;4.124;2024-01-15T04:22:43;8.60;;;4.93;;
19535;SDS011;9913;51.168;4.124;2024-01-15T04:25:12;6.17;;;4.67;;
19535;SDS011;9913;51.168;4.124;2024-01-15T04:27:41;8.03;;;4.97;;
19535;SDS011;9913;51.168;4.124;2024-01-15T04:30:10;7.90;;;4.47;;
19535;SDS011;9913;51.168;4.124;2024-01-15T04:32:40;6.77;;;4.90;;
19535;SDS011;9913;51.168;4.124;2024-01-15T04:35:09;10.37;;;4.93;;
19535;SDS011;9913;51.168;4.124;2024-01-15T04:37:39;11.90;;;5.03;;
19535;SDS011;9913;51.168;4.124;2024-01-15T04:40:08;14.60;;;5.10;;
19535;SDS011;9913;51.168;4.124;2024-01-15T04:42:38;9.47;;;4.97;;
19535;SDS011;9913;51.168;4.124;2024-01-15T04:45:07;10.03;;;5.23;;
19535;SDS011;9913;51.168;4.124;2024-01-15T04:47:36;12.07;;;5.93;;
19535;SDS011;9913;51.168;4.124;2024-01-15T04:50:05;10.60;;;5.20;;
19535;SDS011;9913;51.168;4.124;2024-01-15T04:52:34;10.17;;;6.00;;
19535;SDS011;9913;51.168;4.124;2024-01-15T04:55:05;9.90;;;4.97;;
19535;SDS011;9913;51.168;4.124;2024-01-15T04:57:34;9.83;;;5.00;;
19535;SDS011;9913;51.168;4.124;2024-01-15T05:00:03;11.50;;;5.03;;
19535;SDS011;9913;51.168;4.124;2024-01-15T05:02:33;8.00;;;4.50;;
19535;SDS011;9913;51.168;4.124;2024-01-15T05:05:02;9.43;;;5.13;;
19535;SDS011;9913;51.168;4.124;2024-01-15T05:07:31;7.97;;;4.23;;
19535;SDS011;9913;51.168;4.124;2024-01-15T05:09:59;7.50;;;4.20;;
19535;SDS011;9913;51.168;4.124;2024-01-15T05:12:30;8.93;;;3.90;;
19535;SDS011;9913;51.168;4.124;2024-01-15T05:14:59;10.93;;;3.83;;
19535;SDS011;9913;51.168;4.124;2024-01-15T05:17:29;7.80;;;4.90;;
19535;SDS011;9913;51.168;4.124;2024-01-15T05:19:57;10.67;;;4.73;;
19535;SDS011;9913;51.168;4.124;2024-01-15T05:22:27;7.37;;;4.20;;
19535;SDS011;9913;51.168;4.124;2024-01-15T05:24:56;11.00;;;4.47;;
19535;SDS011;9913;51.168;4.124;2024-01-15T05:27:25;6.77;;;3.50;;
19535;SDS011;9913;51.168;4.124;2024-01-15T05:29:56;8.33;;;3.43;;
19535;SDS011;9913;51.168;4.124;2024-01-15T05:32:25;13.27;;;4.27;;
19535;SDS011;9913;51.168;4.124;2024-01-15T05:34:54;8.17;;;3.60;;
19535;SDS011;9913;51.168;4.124;2024-01-15T05:37:22;9.63;;;3.80;;
19535;SDS011;9913;51.168;4.124;2024-01-15T05:39:51;8.30;;;3.57;;
19535;SDS011;9913;51.168;4.124;2024-01-15T05:42:20;8.33;;;3.60;;
19535;SDS011;9913;51.168;4.124;2024-01-15T05:44:49;9.00;;;3.70;;
19535;SDS011;9913;51.168;4.124;2024-01-15T05:47:19;8.93;;;3.60;;
19535;SDS011;9913;51.168;4.124;2024-01-15T05:49:48;9.67;;;3.80;;
19535;SDS011;9913;51.168;4.124;2024-01-15T05:52:17;10.53;;;4.10;;
19535;SDS011;9913;51.168;4.124;2024-01-15T05:54:47;8.97;;;3.60;;
19535;SDS011;9913;51.168;4.124;2024-01-15T05:57:17;11.70;;;3.80;;
19535;SDS011;9913;51.168;4.124;2024-01-15T05:59:46;6.80;;;3.13;;
19535;SDS011;9913;51.168;4.124;2024-01-15T06:02:15;7.80;;;3.50;;
19535;SDS011;9913;51.168;4.124;2024-01-15T06:04:45;9.73;;;4.23;;
19535;SDS011;9913;51.168;4.124;2024-01-15T06:07:14;10.07;;;3.50;;
19535;SDS011;9913;51.168;4.124;2024-01-15T06:09:43;7.90;;;3.30;;
19535;SDS011;9913;51.168;4.124;2024-01-15T06:12:12;9.37;;;3.17;;
19535;SDS011;9913;51.168;4.124;2024-01-15T06:14:41;6.77;;;3.33;;
19535;SDS011;9913;51.168;4.124;2024-01-15T06:17:10;6.93;;;3.70;;
19535;SDS011;9913;51.168;4.124;2024-01-15T06:19:39;6.77;;;3.53;;
19535;SDS011;9913;51.168;4.124;2024-01-15T06:22:08;8.60;;;3.70;;
19535;SDS011;9913;51.168;4.124;2024-01-15T06:24:37;7.90;;;3.00;;
19535;SDS011;9913;51.168;4.124;2024-01-15T06:27:06;8.90;;;3.40;;
19535;SDS011;9913;51.168;4.124;2024-01-15T06:29:37;9.23;;;3.53;;
19535;SDS011;9913;51.168;4.124;2024-01-15T06:32:06;9.93;;;3.70;;
19535;SDS011;9913;51.168;4.124;2024-01-15T06:34:35;8.07;;;3.37;;
19535;SDS011;9913;51.168;4.124;2024-01-15T06:37:04;7.10;;;3.10;;
19535;SDS011;9913;51.168;4.124;2024-01-15T06:39:35;8.13;;;3.37;;
19535;SDS011;9913;51.168;4.124;2024-01-15T06:42:04;10.33;;;3.03;;
19535;SDS011;9913;51.168;4.124;2024-01-15T06:44:34;9.90;;;3.33;;
19535;SDS011;9913;51.168;4.124;2024-01-15T06:47:02;7.00;;;2.23;;
19535;SDS011;9913;51.168;4.124;2024-01-15T06:49:31;7.63;;;2.60;;
19535;SDS011;9913;51.168;4.124;2024-01-15T06:52:00;7.90;;;2.70;;
19535;SDS011;9913;51.168;4.124;2024-01-15T06:54:29;8.30;;;2.77;;
19535;SDS011;9913;51.168;4.124;2024-01-15T06:57:00;8.57;;;2.30;;
19535;SDS011;9913;51.168;4.124;2024-01-15T06:59:29;6.27;;;2.60;;
19535;SDS011;9913;51.168;4.124;2024-01-15T07:01:58;8.40;;;2.37;;
19535;SDS011;9913;51.168;4.124;2024-01-15T07:04:27;8.23;;;2.50;;
19535;SDS011;9913;51.168;4.124;2024-01-15T07:06:56;9.03;;;2.43;;
19535;SDS011;9913;51.168;4.124;2024-01-15T07:09:25;5.90;;;2.20;;
19535;SDS011;9913;51.168;4.124;2024-01-15T07:11:54;5.63;;;1.80;;
19535;SDS011;9913;51.168;4.124;2024-01-15T07:14:25;6.27;;;2.27;;
19535;SDS011;9913;51.168;4.124;2024-01-15T07:17:06;3.63;;;1.50;;
19535;SDS011;9913;51.168;4.124;2024-01-15T07:19:35;5.07;;;1.70;;
19535;SDS011;9913;51.168;4.124;2024-01-15T07:22:04;6.73;;;1.97;;
19535;SDS011;9913;51.168;4.124;2024-01-15T07:24:33;6.80;;;1.97;;
19535;SDS011;9913;51.168;4.124;2024-01-15T07:27:02;6.03;;;2.20;;
19535;SDS011;9913;51.168;4.124;2024-01-15T07:29:34;5.13;;;2.00;;
19535;SDS011;9913;51.168;4.124;2024-01-15T07:32:04;7.87;;;2.93;;
19535;SDS011;9913;51.168;4.124;2024-01-15T07:34:34;5.07;;;1.93;;
19535;SDS011;9913;51.168;4.124;2024-01-15T07:37:03;6.97;;;1.87;;
19535;SDS011;9913;51.168;4.124;2024-01-15T07:39:32;9.67;;;2.07;;
19535;SDS011;9913;51.168;4.124;2024-01-15T07:42:01;5.17;;;1.63;;
19535;SDS011;9913;51.168;4.124;2024-01-15T07:44:30;9.03;;;1.83;;
19535;SDS011;9913;51.168;4.124;2024-01-15T07:47:00;10.87;;;1.87;;
19535;SDS011;9913;51.168;4.124;2024-01-15T07:49:30;7.93;;;2.00;;
19535;SDS011;9913;51.168;4.124;2024-01-15T07:51:59;6.33;;;2.03;;
19535;SDS011;9913;51.168;4.124;2024-01-15T07:54:28;4.63;;;1.60;;
19535;SDS011;9913;51.168;4.124;2024-01-15T07:56:58;6.10;;;1.93;;
19535;SDS011;9913;51.168;4.124;2024-01-15T07:59:28;7.87;;;1.87;;
19535;SDS011;9913;51.168;4.124;2024-01-15T08:01:57;7.23;;;1.77;;
19535;SDS011;9913;51.168;4.124;2024-01-15T08:04:31;5.60;;;2.03;;
19535;SDS011;9913;51.168;4.124;2024-01-15T08:07:00;7.60;;;2.10;;
19535;SDS011;9913;51.168;4.124;2024-01-15T08:09:30;5.13;;;1.43;;
19535;SDS011;9913;51.168;4.124;2024-01-15T08:11:58;5.80;;;1.77;;
19535;SDS011;9913;51.168;4.124;2024-01-15T08:14:27;6.40;;;1.50;;
19535;SDS011;9913;51.168;4.124;2024-01-15T08:16:56;7.57;;;2.10;;
19535;SDS011;9913;51.168;4.124;2024-01-15T08:19:25;7.63;;;2.13;;
19535;SDS011;9913;51.168;4.124;2024-01-15T08:21:56;5.20;;;1.40;;
19535;SDS011;9913;51.168;4.124;2024-01-15T08:24:25;4.97;;;1.73;;
19535;SDS011;9913;51.168;4.124;2024-01-15T08:26:54;4.67;;;1.93;;
19535;SDS011;9913;51.168;4.124;2024-01-15T08:29:23;5.23;;;1.50;;
19535;SDS011;9913;51.168;4.124;2024-01-15T08:31:52;5.30;;;1.70;;
19535;SDS011;9913;51.168;4.124;2024-01-15T08:34:21;5.40;;;1.53;;
19535;SDS011;9913;51.168;4.124;2024-01-15T08:36:52;9.00;;;1.80;;
19535;SDS011;9913;51.168;4.124;2024-01-15T08:39:22;7.83;;;2.30;;
19535;SDS011;9913;51.168;4.124;2024-01-15T08:41:51;7.27;;;1.50;;
19535;SDS011;9913;51.168;4.124;2024-01-15T08:44:19;4.50;;;1.80;;
19535;SDS011;9913;51.168;4.124;2024-01-15T08:46:48;5.20;;;1.90;;
19535;SDS011;9913;51.168;4.124;2024-01-15T08:49:17;4.40;;;1.63;;
19535;SDS011;9913;51.168;4.124;2024-01-15T08:51:47;6.67;;;1.80;;
19535;SDS011;9913;51.168;4.124;2024-01-15T08:54:16;4.33;;;1.67;;
19535;SDS011;9913;51.168;4.124;2024-01-15T08:56:47;13.10;;;2.20;;
19535;SDS011;9913;51.168;4.124;2024-01-15T08:59:16;7.60;;;1.60;;
19535;SDS011;9913;51.168;4.124;2024-01-15T09:01:51;7.70;;;2.20;;
19535;SDS011;9913;51.168;4.124;2024-01-15T09:04:20;7.27;;;1.77;;
19535;SDS011;9913;51.168;4.124;2024-01-15T09:06:49;6.63;;;1.80;;
19535;SDS011;9913;51.168;4.124;2024-01-15T09:09:18;5.33;;;2.17;;
19535;SDS011;9913;51.168;4.124;2024-01-15T09:11:49;6.57;;;2.13;;
19535;SDS011;9913;51.168;4.124;2024-01-15T09:14:18;8.13;;;1.83;;
19535;SDS011;9913;51.168;4.124;2024-01-15T09:17:03;6.87;;;1.90;;
19535;SDS011;9913;51.168;4.124;2024-01-15T09:19:32;6.20;;;2.00;;
19535;SDS011;9913;51.168;4.124;2024-01-15T09:22:01;5.37;;;2.00;;
19535;SDS011;9913;51.168;4.124;2024-01-15T09:24:30;6.77;;;1.80;;
19535;SDS011;9913;51.168;4.124;2024-01-15T09:27:01;6.83;;;2.17;;
19535;SDS011;9913;51.168;4.124;2024-01-15T09:29:30;9.97;;;2.10;;
19535;SDS011;9913;51.168;4.124;2024-01-15T09:31:59;8.57;;;2.27;;
19535;SDS011;9913;51.168;4.124;2024-01-15T09:34:30;12.47;;;2.27;;
19535;SDS011;9913;51.168;4.124;2024-01-15T09:36:59;7.37;;;1.70;;
19535;SDS011;9913;51.168;4.124;2024-01-15T09:39:28;5.23;;;1.80;;
19535;SDS011;9913;51.168;4.124;2024-01-15T09:41:57;9.00;;;1.93;;
19535;SDS011;9913;51.168;4.124;2024-01-15T09:44:28;5.93;;;1.73;;
19535;SDS011;9913;51.168;4.124;2024-01-15T09:46:58;6.30;;;1.60;;
19535;SDS011;9913;51.168;4.124;2024-01-15T09:49:27;5.67;;;1.80;;
19535;SDS011;9913;51.168;4.124;2024-01-15T09:51:57;5.63;;;1.87;;
19535;SDS011;9913;51.168;4.124;2024-01-15T09:54:37;8.47;;;2.37;;
19535;SDS011;9913;51.168;4.124;2024-01-15T09:57:07;6.03;;;1.73;;
19535;SDS011;9913;51.168;4.124;2024-01-15T09:59:37;8.60;;;2.00;;
19535;SDS011;9913;51.168;4.124;2024-01-15T10:02:08;6.47;;;1.67;;
19535;SDS011;9913;51.168;4.124;2024-01-15T10:04:40;11.03;;;2.03;;
19535;SDS011;9913;51.168;4.124;2024-01-15T10:07:10;4.60;;;1.50;;
19535;SDS011;9913;51.168;4.124;2024-01-15T10:09:46;5.43;;;1.97;;
19535;SDS011;9913;51.168;4.124;2024-01-15T10:12:15;8.70;;;1.70;;
19535;SDS011;9913;51.168;4.124;2024-01-15T10:14:46;4.83;;;1.70;;
19535;SDS011;9913;51.168;4.124;2024-01-15T10:17:16;7.50;;;2.27;;
19535;SDS011;9913;51.168;4.124;2024-01-15T10:19:45;6.73;;;2.00;;
19535;SDS011;9913;51.168;4.124;2024-01-15T10:22:16;4.30;;;1.83;;
19535;SDS011;9913;51.168;4.124;2024-01-15T10:24:46;6.80;;;1.90;;
19535;SDS011;9913;51.168;4.124;2024-01-15T10:27:15;9.03;;;2.10;;
19535;SDS011;9913;51.168;4.124;2024-01-15T10:29:46;8.27;;;2.17;;
19535;SDS011;9913;51.168;4.124;2024-01-15T10:32:15;6.97;;;1.80;;
19535;SDS011;9913;51.168;4.124;2024-01-15T10:34:43;8.37;;;1.90;;
19535;SDS011;9913;51.168;4.124;2024-01-15T10:37:12;5.63;;;1.80;;
19535;SDS011;9913;51.168;4.124;2024-01-15T10:39:42;6.27;;;1.97;;
19535;SDS011;9913;51.168;4.124;2024-01-15T10:42:11;5.87;;;1.73;;
19535;SDS011;9913;51.168;4.124;2024-01-15T10:44:40;4.80;;;1.57;;
19535;SDS011;9913;51.168;4.124;2024-01-15T10:47:11;8.83;;;1.60;;
19535;SDS011;9913;51.168;4.124;2024-01-15T10:49:41;6.63;;;1.30;;
19535;SDS011;9913;51.168;4.124;2024-01-15T10:52:10;7.80;;;1.70;;
19535;SDS011;9913;51.168;4.124;2024-01-15T10:54:39;3.03;;;1.30;;
19535;SDS011;9913;51.168;4.124;2024-01-15T10:57:09;10.40;;;1.60;;
19535;SDS011;9913;51.168;4.124;2024-01-15T10:59:40;8.97;;;1.97;;
19535;SDS011;9913;51.168;4.124;2024-01-15T11:02:09;10.87;;;2.00;;
19535;SDS011;9913;51.168;4.124;2024-01-15T11:04:40;8.60;;;1.90;;
19535;SDS011;9913;51.168;4.124;2024-01-15T11:07:09;6.90;;;1.70;;
19535;SDS011;9913;51.168;4.124;2024-01-15T11:09:40;4.50;;;1.50;;
19535;SDS011;9913;51.168;4.124;2024-01-15T11:12:10;6.53;;;1.30;;
19535;SDS011;9913;51.168;4.124;2024-01-15T11:14:41;6.67;;;1.73;;
19535;SDS011;9913;51.168;4.124;2024-01-15T11:17:14;5.40;;;1.57;;
19535;SDS011;9913;51.168;4.124;2024-01-15T11:19:46;8.37;;;1.93;;
19535;SDS011;9913;51.168;4.124;2024-01-15T11:25:18;9.80;;;1.90;;
19535;SDS011;9913;51.168;4.124;2024-01-15T11:27:47;7.70;;;1.70;;
19535;SDS011;9913;51.168;4.124;2024-01-15T11:30:19;6.03;;;1.40;;
19535;SDS011;9913;51.168;4.124;2024-01-15T11:32:48;7.80;;;2.20;;
19535;SDS011;9913;51.168;4.124;2024-01-15T11:35:18;10.07;;;2.00;;
19535;SDS011;9913;51.168;4.124;2024-01-15T11:37:56;5.90;;;1.67;;
19535;SDS011;9913;51.168;4.124;2024-01-15T11:40:38;3.67;;;1.30;;
19535;SDS011;9913;51.168;4.124;2024-01-15T11:43:10;4.90;;;1.37;;
19535;SDS011;9913;51.168;4.124;2024-01-15T11:45:40;5.67;;;1.57;;
19535;SDS011;9913;51.168;4.124;2024-01-15T11:48:10;5.73;;;1.60;;
19535;SDS011;9913;51.168;4.124;2024-01-15T11:50:49;8.07;;;1.50;;
19535;SDS011;9913;51.168;4.124;2024-01-15T11:53:27;10.07;;;3.90;;
19535;SDS011;9913;51.168;4.124;2024-01-15T11:56:01;8.80;;;2.03;;
19535;SDS011;9913;51.168;4.124;2024-01-15T11:58:33;9.90;;;1.93;;
19535;SDS011;9913;51.168;4.124;2024-01-15T12:01:04;6.13;;;1.97;;
19535;SDS011;9913;51.168;4.124;2024-01-15T12:03:34;7.53;;;1.87;;
19535;SDS011;9913;51.168;4.124;2024-01-15T12:06:06;6.53;;;2.23;;
19535;SDS011;9913;51.168;4.124;2024-01-15T12:08:38;8.13;;;2.53;;
19535;SDS011;9913;51.168;4.124;2024-01-15T12:11:10;8.90;;;2.20;;
19535;SDS011;9913;51.168;4.124;2024-01-15T12:13:42;5.40;;;2.40;;
19535;SDS011;9913;51.168;4.124;2024-01-15T12:16:11;9.97;;;2.03;;
19535;SDS011;9913;51.168;4.124;2024-01-15T12:18:40;10.07;;;2.10;;
19535;SDS011;9913;51.168;4.124;2024-01-15T12:21:11;6.93;;;1.97;;
19535;SDS011;9913;51.168;4.124;2024-01-15T12:23:40;6.03;;;1.80;;
19535;SDS011;9913;51.168;4.124;2024-01-15T12:26:09;6.73;;;2.17;;
19535;SDS011;9913;51.168;4.124;2024-01-15T12:28:38;9.53;;;2.63;;
19535;SDS011;9913;51.168;4.124;2024-01-15T12:31:08;6.57;;;2.00;;
19535;SDS011;9913;51.168;4.124;2024-01-15T12:33:36;6.10;;;1.00;;
19535;SDS011;9913;51.168;4.124;2024-01-15T12:36:07;1.40;;;0.60;;
19535;SDS011;9913;51.168;4.124;2024-01-15T12:38:38;4.60;;;0.60;;
19535;SDS011;9913;51.168;4.124;2024-01-15T12:41:07;2.17;;;0.83;;
19535;SDS011;9913;51.168;4.124;2024-01-15T12:43:35;2.67;;;0.63;;
19535;SDS011;9913;51.168;4.124;2024-01-15T12:46:04;1.10;;;0.67;;
19535;SDS011;9913;51.168;4.124;2024-01-15T12:48:34;3.43;;;0.97;;
19535;SDS011;9913;51.168;4.124;2024-01-15T12:51:05;1.80;;;0.60;;
19535;SDS011;9913;51.168;4.124;2024-01-15T12:53:34;3.97;;;0.83;;
19535;SDS011;9913;51.168;4.124;2024-01-15T12:56:05;3.87;;;0.97;;
19535;SDS011;9913;51.168;4.124;2024-01-15T12:58:34;3.13;;;0.90;;
19535;SDS011;9913;51.168;4.124;2024-01-15T13:01:02;1.30;;;1.13;;
19535;SDS011;9913;51.168;4.124;2024-01-15T13:03:32;3.03;;;1.13;;
19535;SDS011;9913;51.168;4.124;2024-01-15T13:06:01;4.53;;;1.10;;
19535;SDS011;9913;51.168;4.124;2024-01-15T13:08:30;2.23;;;0.97;;
19535;SDS011;9913;51.168;4.124;2024-01-15T13:10:59;2.67;;;0.70;;
19535;SDS011;9913;51.168;4.124;2024-01-15T13:13:30;1.00;;;0.60;;
19535;SDS011;9913;51.168;4.124;2024-01-15T13:16:01;2.63;;;0.60;;
19535;SDS011;9913;51.168;4.124;2024-01-15T13:18:30;1.17;;;0.70;;
19535;SDS011;9913;51.168;4.124;2024-01-15T13:21:00;4.10;;;1.17;;
19535;SDS011;9913;51.168;4.124;2024-01-15T13:23:29;2.63;;;0.80;;
19535;SDS011;9913;51.168;4.124;2024-01-15T13:25:58;1.17;;;0.77;;
19535;SDS011;9913;51.168;4.124;2024-01-15T13:28:27;2.67;;;0.70;;
19535;SDS011;9913;51.168;4.124;2024-01-15T13:30:57;2.20;;;1.03;;
19535;SDS011;9913;51.168;4.124;2024-01-15T13:33:27;1.83;;;0.70;;
19535;SDS011;9913;51.168;4.124;2024-01-15T13:35:56;3.90;;;0.90;;
19535;SDS011;9913;51.168;4.124;2024-01-15T13:38:25;4.73;;;1.47;;
19535;SDS011;9913;51.168;4.124;2024-01-15T13:40:54;3.20;;;1.20;;
19535;SDS011;9913;51.168;4.124;2024-01-15T13:43:23;3.80;;;0.87;;
19535;SDS011;9913;51.168;4.124;2024-01-15T13:45:53;3.70;;;1.33;;
19535;SDS011;9913;51.168;4.124;2024-01-15T13:48:23;3.87;;;1.20;;
19535;SDS011;9913;51.168;4.124;2024-01-15T13:50:53;7.03;;;2.17;;
19535;SDS011;9913;51.168;4.124;2024-01-15T13:53:22;4.57;;;1.90;;
19535;SDS011;9913;51.168;4.124;2024-01-15T13:55:51;6.40;;;2.60;;
19535;SDS011;9913;51.168;4.124;2024-01-15T13:58:20;8.30;;;1.50;;
19535;SDS011;9913;51.168;4.124;2024-01-15T14:00:49;10.80;;;2.10;;
19535;SDS011;9913;51.168;4.124;2024-01-15T14:03:17;4.70;;;1.83;;
19535;SDS011;9913;51.168;4.124;2024-01-15T14:05:48;8.87;;;2.57;;
19535;SDS011;9913;51.168;4.124;2024-01-15T14:08:24;6.13;;;1.90;;
19535;SDS011;9913;51.168;4.124;2024-01-15T14:10:53;5.13;;;1.70;;
19535;SDS011;9913;51.168;4.124;2024-01-15T14:13:23;6.03;;;1.70;;
19535;SDS011;9913;51.168;4.124;2024-01-15T14:15:51;5.10;;;1.47;;
19535;SDS011;9913;51.168;4.124;2024-01-15T14:18:20;6.90;;;1.40;;
19535;SDS011;9913;51.168;4.124;2024-01-15T14:20:51;3.53;;;1.30;;
19535;SDS011;9913;51.168;4.124;2024-01-15T14:23:21;4.70;;;1.40;;
19535;SDS011;9913;51.168;4.124;2024-01-15T14:25:50;4.97;;;1.47;;
19535;SDS011;9913;51.168;4.124;2024-01-15T14:28:19;7.37;;;1.67;;
19535;SDS011;9913;51.168;4.124;2024-01-15T14:30:47;6.33;;;1.40;;
19535;SDS011;9913;51.168;4.124;2024-01-15T14:33:17;4.27;;;1.20;;
19535;SDS011;9913;51.168;4.124;2024-01-15T14:35:47;7.60;;;1.20;;
19535;SDS011;9913;51.168;4.124;2024-01-15T14:38:18;7.73;;;1.40;;
19535;SDS011;9913;51.168;4.124;2024-01-15T14:40:47;8.30;;;1.30;;
19535;SDS011;9913;51.168;4.124;2024-01-15T14:43:16;3.87;;;1.40;;
19535;SDS011;9913;51.168;4.124;2024-01-15T14:45:45;10.43;;;1.63;;
19535;SDS011;9913;51.168;4.124;2024-01-15T14:48:14;5.50;;;1.40;;
19535;SDS011;9913;51.168;4.124;2024-01-15T14:50:43;9.87;;;1.60;;
19535;SDS011;9913;51.168;4.124;2024-01-15T14:53:12;6.33;;;1.57;;
19535;SDS011;9913;51.168;4.124;2024-01-15T14:55:43;8.03;;;1.50;;
19535;SDS011;9913;51.168;4.124;2024-01-15T14:58:12;6.37;;;1.57;;
19535;SDS011;9913;51.168;4.124;2024-01-15T15:00:40;4.37;;;1.60;;
19535;SDS011;9913;51.168;4.124;2024-01-15T15:03:10;6.97;;;1.70;;
19535;SDS011;9913;51.168;4.124;2024-01-15T15:05:41;9.27;;;1.97;;
19535;SDS011;9913;51.168;4.124;2024-01-15T15:08:10;6.53;;;1.50;;
19535;SDS011;9913;51.168;4.124;2024-01-15T15:10:39;4.97;;;1.67;;
19535;SDS011;9913;51.168;4.124;2024-01-15T15:13:10;7.00;;;1.70;;
19535;SDS011;9913;51.168;4.124;2024-01-15T15:15:39;8.97;;;2.23;;
19535;SDS011;9913;51.168;4.124;2024-01-15T15:18:08;5.67;;;1.90;;